Time;durP1;ratioP1;P1;durP2;ratioP2;P2;SDS_P1;SDS_P2;PMS_P1;PMS_P2;Temp;Humidity;BMP_temperature;BMP_pressure;BME280_temperature;BME280_humidity;BME280_pressure;Samples;Min_cycle;Max_cycle;Signal;HPM_P1;HPM_P2
2021/12/19 00:09:46;;;;;;;;;;;;;;;20.63;34.17;101609.94;98512;1402;60589;-82
2021/12/19 00:12:41;;;;;;;;;;;;;;;;;;;;;
2021/12/19 00:16:33;;;;;;;;;;;;;;;20.63;34.13;101604.77;97790;1406;71596;-81
2021/12/19 00:22:40;;;;;;;;;;;;;;;;;;;;;
2021/12/19 00:25:31;;;;;;;;;;;;;;;;;;;;;
2021/12/19 00:28:50;;;;;;;;;;;;;;;;;;;;;
2021/12/19 00:32:31;;;;;;;;;;;;;;;20.62;34.17;101598.54;98849;1395;74159;-82
2021/12/19 00:35:22;;;;;;;;;;;;;;;20.62;34.20;101591.05;98952;1386;60640;-81
2021/12/19 00:38:31;;;;;;;;;;;;;;;;;;;;;
2021/12/19 00:42:08;;;;;;;;;;;;;;;;;;;;;
2021/12/19 00:44:46;;;;;;;;;;;;;;;20.62;34.17;101568.34;100279;1376;74152;-81
2021/12/19 00:47:52;;;;;;;;;;;;;;;20.62;34.17;101561.88;99732;1383;60559;-81
2021/12/19 00:51:07;;;;;;;;;;;;;;;20.63;34.10;101555.03;99406;1383;60437;-81
2021/12/19 00:54:11;;;;;;;;;;;;;;;;;;;;;
2021/12/19 00:57:27;;;;;;;;;;;;;;;20.63;34.17;101553.06;99246;1387;72861;-81
2021/12/19 01:00:38;;;;;;;;;;;;;;;20.63;34.14;101550.38;99475;1384;60335;-80
2021/12/19 01:03:48;;;;;;;;;;;;;;;20.63;34.13;101543.79;99526;1385;60631;-81
2021/12/19 01:06:46;;;;;;;;;;;;;;;20.63;34.18;101532.88;99576;1384;73371;-81
2021/12/19 01:10:15;;;;;;;;;;;;;;;20.63;34.12;101525.38;99268;1386;75182;-80
2021/12/19 01:13:17;;;;;;;;;;;;;;;20.63;34.09;101520.91;99370;1381;60454;-81
2021/12/19 01:16:27;;;;;;;;;;;;;;;20.62;34.14;101516.47;99277;1384;60611;-82
2021/12/19 01:25:46;;;;;;;;;;;;;;;20.63;34.10;101508.02;99036;1389;60667;-81
2021/12/19 01:28:50;;;;;;;;;;;;;;;20.62;34.10;101502.49;99143;1383;61699;-81
2021/12/19 01:31:57;;;;;;;;;;;;;;;20.62;34.09;101500.89;99152;1389;72758;-81
2021/12/19 01:41:22;;;;;;;;;;;;;;;;;;;;;
2021/12/19 01:44:46;;;;;;;;;;;;;;;20.63;34.09;101482.63;99007;1393;74386;-81
2021/12/19 01:47:54;;;;;;;;;;;;;;;;;;;;;
2021/12/19 01:51:21;;;;;;;;;;;;;;;20.62;34.08;101470.16;99092;1393;60604;-81
2021/12/19 01:54:09;;;;;;;;;;;;;;;20.62;34.05;101457.47;98981;1394;60928;-82
2021/12/19 01:58:01;;;;;;;;;;;;;;;20.63;34.10;101454.55;98736;1398;74624;-82
2021/12/19 02:00:55;;;;;;;;;;;;;;;;;;;;;
2021/12/19 02:04:43;;;;;;;;;;;;;;;20.62;34.02;101439.73;98809;1396;60527;-81
2021/12/19 02:07:46;;;;;;;;;;;;;;;20.63;34.05;101432.02;98674;1397;60433;-82
2021/12/19 02:10:49;;;;;;;;;;;;;;;20.63;34.05;101427.02;98416;1403;72974;-81
2021/12/19 02:14:07;;;;;;;;;;;;;;;;;;;;;
2021/12/19 02:17:05;;;;;;;;;;;;;;;;;;;;;
2021/12/19 02:20:22;;;;;;;;;;;;;;;20.63;34.02;101425.20;98032;1405;60477;-80
2021/12/19 02:23:27;;;;;;;;;;;;;;;;;;;;;
2021/12/19 02:26:33;;;;;;;;;;;;;;;20.62;34.02;101415.94;98736;1393;73787;-82
2021/12/19 02:29:19;;;;;;;;;;;;;;;20.63;34.04;101412.67;98695;1396;61261;-81
2021/12/19 02:32:34;;;;;;;;;;;;;;;20.62;34.00;101409.87;98814;1392;59430;-82
2021/12/19 02:35:49;;;;;;;;;;;;;;;20.62;33.98;101405.98;99035;1393;73854;-81
2021/12/19 02:48:45;;;;;;;;;;;;;;;;;;;;;
2021/12/19 02:55:20;;;;;;;;;;;;;;;;;;;;;
2021/12/19 02:58:47;;;;;;;;;;;;;;;20.62;33.97;101335.70;98743;1397;60487;-81
2021/12/19 03:05:16;;;;;;;;;;;;;;;;;;;;;
2021/12/19 03:08:32;;;;;;;;;;;;;;;20.62;33.97;101327.63;97521;1411;60598;-81
2021/12/19 03:18:15;;;;;;;;;;;;;;;20.62;33.91;101314.95;97768;1403;75428;-81
2021/12/19 03:21:48;;;;;;;;;;;;;;;;;;;;;
2021/12/19 03:25:59;;;;;;;;;;;;;;;20.62;33.93;101312.63;97378;1410;60472;-80
2021/12/19 03:32:33;;;;;;;;;;;;;;;20.62;33.91;101308.80;97091;1413;75275;-80
2021/12/19 03:35:23;;;;;;;;;;;;;;;;;;;;;
2021/12/19 03:38:37;;;;;;;;;;;;;;;20.62;33.92;101305.24;97075;1414;61329;-81
2021/12/19 03:41:56;;;;;;;;;;;;;;;;;;;;;
2021/12/19 03:45:01;;;;;;;;;;;;;;;;;;;;;
2021/12/19 03:48:11;;;;;;;;;;;;;;;20.63;33.85;101293.42;98604;1397;61649;-80
2021/12/19 03:51:38;;;;;;;;;;;;;;;;;;;;;
2021/12/19 03:58:30;;;;;;;;;;;;;;;;;;;;;
2021/12/19 04:01:01;;;;;;;;;;;;;;;20.63;33.88;101278.40;99408;1381;60975;-81
2021/12/19 04:03:57;;;;;;;;;;;;;;;20.63;33.80;101276.09;99250;1388;60923;-81
2021/12/19 04:07:02;;;;;;;;;;;;;;;;;;;;;
2021/12/19 04:10:08;;;;;;;;;;;;;;;20.63;33.79;101261.23;99150;1389;72696;-80
2021/12/19 04:13:39;;;;;;;;;;;;;;;20.62;33.84;101258.77;99509;1383;60525;-80
2021/12/19 04:16:31;;;;;;;;;;;;;;;;;;;;;
2021/12/19 04:19:31;;;;;;;;;;;;;;;;;;;;;
2021/12/19 04:22:47;;;;;;;;;;;;;;;;;;;;;
2021/12/19 04:26:34;;;;;;;;;;;;;;;20.62;33.75;101243.92;98972;1393;60677;-82
2021/12/19 04:29:22;;;;;;;;;;;;;;;;;;;;;
2021/12/19 04:36:01;;;;;;;;;;;;;;;;;;;;;
2021/12/19 04:43:17;;;;;;;;;;;;;;;20.62;33.64;101208.33;98632;1393;61634;-82
2021/12/19 05:05:45;;;;;;;;;;;;;;;20.62;33.62;101209.58;99001;1390;61050;-81
2021/12/19 05:15:23;;;;;;;;;;;;;;;;;;;;;
2021/12/19 05:18:27;;;;;;;;;;;;;;;20.62;33.54;101212.48;99324;1380;61404;-81
2021/12/19 05:31:35;;;;;;;;;;;;;;;;;;;;;
2021/12/19 05:34:32;;;;;;;;;;;;;;;20.62;33.50;101198.33;99173;1387;60450;-81
2021/12/19 05:47:45;;;;;;;;;;;;;;;;;;;;;
2021/12/19 05:51:44;;;;;;;;;;;;;;;20.61;33.42;101185.52;98832;1390;73888;-81
2021/12/19 05:54:16;;;;;;;;;;;;;;;;;;;;;
2021/12/19 05:57:42;;;;;;;;;;;;;;;20.61;33.41;101177.64;98386;1399;60500;-81
2021/12/19 06:01:12;;;;;;;;;;;;;;;20.61;33.39;101181.58;97567;1409;60664;-82
2021/12/19 06:04:14;;;;;;;;;;;;;;;20.61;33.27;101177.09;96729;1421;72024;-82
2021/12/19 06:07:09;;;;;;;;;;;;;;;;;;;;;
2021/12/19 06:13:02;;;;;;;;;;;;;;;;;;;;;
2021/12/19 06:16:08;;;;;;;;;;;;;;;20.62;33.20;101160.61;96317;1419;72400;-82
2021/12/19 06:19:06;;;;;;;;;;;;;;;;;;;;;
2021/12/19 06:22:22;;;;;;;;;;;;;;;20.62;33.28;101151.50;96387;1423;60858;-81
2021/12/19 06:25:27;;;;;;;;;;;;;;;;;;;;;
2021/12/19 06:28:46;;;;;;;;;;;;;;;20.62;33.20;101132.50;96718;1420;71934;-82
2021/12/19 06:32:13;;;;;;;;;;;;;;;20.63;33.15;101125.12;96321;1420;73000;-80
2021/12/19 06:35:29;;;;;;;;;;;;;;;;;;;;;
2021/12/19 06:38:49;;;;;;;;;;;;;;;;;;;;;
2021/12/19 06:42:04;;;;;;;;;;;;;;;20.64;33.05;101129.70;97327;1403;75403;-81
2021/12/19 06:45:05;;;;;;;;;;;;;;;;;;;;;
2021/12/19 06:48:22;;;;;;;;;;;;;;;;;;;;;
2021/12/19 06:51:49;;;;;;;;;;;;;;;20.65;33.13;101125.51;98795;1392;62797;-81
2021/12/19 06:54:56;;;;;;;;;;;;;;;20.66;33.18;101124.23;99319;1387;71940;-81
2021/12/19 06:58:47;;;;;;;;;;;;;;;20.66;33.18;101114.19;99134;1390;72955;-81
2021/12/19 07:01:47;;;;;;;;;;;;;;;;;;;;;
2021/12/19 07:11:43;;;;;;;;;;;;;;;20.66;33.15;101087.00;99593;1383;72859;-81
2021/12/19 07:15:27;;;;;;;;;;;;;;;20.66;33.18;101084.67;99560;1375;61188;-80
2021/12/19 07:21:30;;;;;;;;;;;;;;;20.67;33.11;101079.79;99446;1384;73100;-81
2021/12/19 07:24:36;;;;;;;;;;;;;;;20.67;33.06;101075.52;98998;1391;74147;-81
2021/12/19 07:27:42;;;;;;;;;;;;;;;20.66;33.06;101064.30;99069;1388;60502;-82
2021/12/19 07:31:13;;;;;;;;;;;;;;;20.66;33.11;101062.86;99258;1388;60776;-81
2021/12/19 07:34:11;;;;;;;;;;;;;;;;;;;;;
2021/12/19 07:37:17;;;;;;;;;;;;;;;20.66;33.08;101058.03;99055;1381;72429;-81
2021/12/19 07:40:39;;;;;;;;;;;;;;;;;;;;;
2021/12/19 07:43:45;;;;;;;;;;;;;;;;;;;;;
2021/12/19 07:46:55;;;;;;;;;;;;;;;20.66;32.98;101052.49;98953;1393;72856;-82
2021/12/19 07:50:03;;;;;;;;;;;;;;;20.66;33.04;101050.69;99313;1380;74168;-80
2021/12/19 07:53:20;;;;;;;;;;;;;;;;;;;;;
2021/12/19 07:56:14;;;;;;;;;;;;;;;20.66;33.06;101049.95;99162;1387;60872;-80
2021/12/19 07:59:08;;;;;;;;;;;;;;;20.66;33.03;101047.45;99254;1384;72961;-81
2021/12/19 08:01:53;;;;;;;;;;;;;;;20.67;32.96;101045.12;99204;1384;74075;-81
2021/12/19 08:05:07;;;;;;;;;;;;;;;20.67;32.96;101038.84;98952;1387;60781;-82
2021/12/19 08:08:17;;;;;;;;;;;;;;;20.66;33.01;101038.16;99007;1391;60326;-82
2021/12/19 08:14:50;;;;;;;;;;;;;;;20.67;32.98;101032.40;99259;1381;74140;-82
2021/12/19 08:17:35;;;;;;;;;;;;;;;;;;;;;
2021/12/19 08:21:19;;;;;;;;;;;;;;;20.67;33.02;101029.38;99791;1379;60546;-82
2021/12/19 08:23:57;;;;;;;;;;;;;;;;;;;;;
2021/12/19 08:26:52;;;;;;;;;;;;;;;;;;;;;
2021/12/19 08:30:13;;;;;;;;;;;;;;;;;;;;;
2021/12/19 08:32:59;;;;;;;;;;;;;;;20.67;33.05;101001.42;100166;1372;62105;-81
2021/12/19 08:36:05;;;;;;;;;;;;;;;20.67;33.07;100999.11;99426;1378;71605;-82
2021/12/19 08:39:15;;;;;;;;;;;;;;;20.67;33.06;101002.50;99516;1381;74099;-82
2021/12/19 08:42:47;;;;;;;;;;;;;;;20.68;33.07;100999.09;99540;1381;60864;-82
2021/12/19 08:45:57;;;;;;;;;;;;;;;20.67;33.11;100996.79;99878;1378;60656;-82
2021/12/19 08:49:28;;;;;;;;;;;;;;;20.68;33.09;100993.34;100134;1371;73889;-82
2021/12/19 08:52:24;;;;;;;;;;;;;;;;;;;;;
2021/12/19 08:55:26;;;;;;;;;;;;;;;20.68;33.11;100982.61;99878;1375;60545;-82
2021/12/19 08:58:56;;;;;;;;;;;;;;;20.69;33.12;100978.81;99416;1387;60611;-82
2021/12/19 09:01:31;;;;;;;;;;;;;;;20.69;33.10;100970.06;99371;1381;71618;-80
2021/12/19 09:05:22;;;;;;;;;;;;;;;20.69;33.11;100964.34;99054;1387;72945;-81
2021/12/19 09:08:02;;;;;;;;;;;;;;;;;;;;;
2021/12/19 09:11:08;;;;;;;;;;;;;;;20.69;33.11;100947.49;98862;1393;60501;-81
2021/12/19 09:14:00;;;;;;;;;;;;;;;20.70;33.10;100942.11;99114;1389;73478;-81
2021/12/19 09:21:17;;;;;;;;;;;;;;;20.70;33.09;100925.11;98806;1394;60635;-81
2021/12/19 09:24:08;;;;;;;;;;;;;;;;;;;;;
2021/12/19 09:27:25;;;;;;;;;;;;;;;;;;;;;
2021/12/19 09:30:43;;;;;;;;;;;;;;;20.72;33.08;100892.06;98065;1403;75607;-82
2021/12/19 09:34:10;;;;;;;;;;;;;;;20.73;33.14;100886.78;97560;1402;60576;-82
2021/12/19 09:37:16;;;;;;;;;;;;;;;20.76;33.10;100891.27;98015;1398;61711;-81
2021/12/19 09:43:41;;;;;;;;;;;;;;;;;;;;;
2021/12/19 09:46:46;;;;;;;;;;;;;;;;;;;;;
2021/12/19 09:49:53;;;;;;;;;;;;;;;20.78;33.16;100870.02;97696;1407;60600;-81
2021/12/19 09:56:35;;;;;;;;;;;;;;;;;;;;;
2021/12/19 09:59:50;;;;;;;;;;;;;;;20.80;33.09;100845.70;98822;1395;60707;-81
2021/12/19 10:03:41;;;;;;;;;;;;;;;20.82;33.09;100842.36;99446;1383;60424;-80
2021/12/19 10:06:34;;;;;;;;;;;;;;;20.84;33.10;100847.27;99261;1387;71626;-81
2021/12/19 10:09:36;;;;;;;;;;;;;;;20.85;33.18;100844.30;99294;1384;73236;-82
2021/12/19 10:16:32;;;;;;;;;;;;;;;20.85;33.05;100823.91;99029;1390;60550;-82
2021/12/19 10:19:27;;;;;;;;;;;;;;;;;;;;;
2021/12/19 10:23:08;;;;;;;;;;;;;;;20.86;33.10;100808.11;98938;1387;74341;-81
2021/12/19 10:26:10;;;;;;;;;;;;;;;20.85;33.07;100809.02;99022;1390;61898;-81
2021/12/19 10:29:24;;;;;;;;;;;;;;;;;;;;;
2021/12/19 10:33:13;;;;;;;;;;;;;;;20.86;33.08;100788.44;99072;1392;72716;-81
2021/12/19 10:35:53;;;;;;;;;;;;;;;20.86;33.04;100776.83;98878;1395;74080;-81
2021/12/19 10:39:17;;;;;;;;;;;;;;;20.85;33.01;100760.39;98683;1398;60548;-82
2021/12/19 10:43:15;;;;;;;;;;;;;;;20.85;33.13;100747.92;98540;1400;60575;-81
2021/12/19 10:46:20;;;;;;;;;;;;;;;;;;;;;
2021/12/19 10:49:24;;;;;;;;;;;;;;;20.84;33.02;100732.55;98611;1394;75643;-81
2021/12/19 10:52:35;;;;;;;;;;;;;;;;;;;;;
2021/12/19 10:55:33;;;;;;;;;;;;;;;;;;;;;
2021/12/19 11:01:59;;;;;;;;;;;;;;;20.86;33.04;100700.98;98538;1397;75659;-81
2021/12/19 11:05:24;;;;;;;;;;;;;;;;;;;;;
2021/12/19 11:08:37;;;;;;;;;;;;;;;;;;;;;
2021/12/19 11:11:23;;;;;;;;;;;;;;;20.84;33.07;100676.05;98518;1401;73036;-81
2021/12/19 11:14:40;;;;;;;;;;;;;;;20.85;32.97;100663.67;98480;1403;75651;-81
2021/12/19 11:17:46;;;;;;;;;;;;;;;20.84;33.09;100659.96;98338;1403;61681;-81
2021/12/19 11:24:49;;;;;;;;;;;;;;;20.84;33.02;100639.42;98091;1402;74281;-81
2021/12/19 11:27:23;;;;;;;;;;;;;;;;;;;;;
2021/12/19 11:30:41;;;;;;;;;;;;;;;;;;;;;
2021/12/19 11:33:51;;;;;;;;;;;;;;;20.84;33.11;100619.91;97030;1411;60578;-81
2021/12/19 11:36:59;;;;;;;;;;;;;;;20.84;32.96;100622.21;96760;1420;74006;-82
2021/12/19 11:39:51;;;;;;;;;;;;;;;20.83;33.00;100619.21;96774;1420;74276;-82
2021/12/19 11:42:41;;;;;;;;;;;;;;;20.84;33.08;100614.20;96728;1419;61167;-81
2021/12/19 11:45:39;;;;;;;;;;;;;;;;;;;;;
2021/12/19 11:48:34;;;;;;;;;;;;;;;20.84;32.93;100591.44;97304;1409;72683;-81
2021/12/19 11:51:27;;;;;;;;;;;;;;;20.84;33.02;100588.04;97170;1411;75225;-82
2021/12/19 11:54:34;;;;;;;;;;;;;;;20.85;33.16;100586.55;97083;1412;61573;-82
2021/12/19 11:57:37;;;;;;;;;;;;;;;20.85;33.07;100589.92;97491;1408;60636;-82
2021/12/19 12:00:59;;;;;;;;;;;;;;;20.86;33.12;100583.06;97889;1400;71612;-80
2021/12/19 12:07:48;;;;;;;;;;;;;;;20.87;33.15;100583.74;98644;1396;60545;-82
2021/12/19 12:17:51;;;;;;;;;;;;;;;20.86;33.11;100557.48;98866;1387;74380;-81
2021/12/19 12:20:43;;;;;;;;;;;;;;;;;;;;;
2021/12/19 12:23:50;;;;;;;;;;;;;;;;;;;;;
2021/12/19 12:26:46;;;;;;;;;;;;;;;20.86;33.24;100548.20;98359;1396;74557;-81
2021/12/19 12:32:37;;;;;;;;;;;;;;;;;;;;;
2021/12/19 12:35:33;;;;;;;;;;;;;;;;;;;;;
2021/12/19 12:38:49;;;;;;;;;;;;;;;;;;;;;
2021/12/19 12:45:22;;;;;;;;;;;;;;;;;;;;;
2021/12/19 12:48:50;;;;;;;;;;;;;;;20.88;33.22;100492.44;98668;1393;60683;-81
2021/12/19 12:55:06;;;;;;;;;;;;;;;20.88;33.30;100479.02;98850;1390;72864;-82
2021/12/19 12:58:33;;;;;;;;;;;;;;;20.88;33.32;100471.70;99311;1378;60574;-82
2021/12/19 13:04:42;;;;;;;;;;;;;;;20.89;33.28;100469.29;99203;1383;71542;-82
2021/12/19 13:07:51;;;;;;;;;;;;;;;20.89;33.33;100464.50;98980;1387;72845;-82
2021/12/19 13:11:08;;;;;;;;;;;;;;;;;;;;;
2021/12/19 13:14:53;;;;;;;;;;;;;;;20.89;33.31;100448.19;99020;1390;60493;-81
2021/12/19 13:24:22;;;;;;;;;;;;;;;20.91;33.40;100427.29;98045;1405;60483;-80
2021/12/19 13:28:03;;;;;;;;;;;;;;;20.91;33.43;100429.02;97737;1406;60534;-80
2021/12/19 13:30:58;;;;;;;;;;;;;;;;;;;;;
2021/12/19 13:34:49;;;;;;;;;;;;;;;20.92;33.41;100419.13;97582;1410;71762;-81
2021/12/19 13:37:32;;;;;;;;;;;;;;;20.92;33.42;100419.13;97487;1406;60907;-80
2021/12/19 13:40:22;;;;;;;;;;;;;;;20.92;33.48;100415.35;97549;1409;60999;-81
2021/12/19 13:43:48;;;;;;;;;;;;;;;;;;;;;
2021/12/19 13:46:57;;;;;;;;;;;;;;;;;;;;;
2021/12/19 13:49:59;;;;;;;;;;;;;;;20.93;33.46;100389.35;97056;1416;60505;-82
2021/12/19 13:56:29;;;;;;;;;;;;;;;;;;;;;
2021/12/19 14:00:29;;;;;;;;;;;;;;;;;;;;;
2021/12/19 14:03:35;;;;;;;;;;;;;;;20.93;33.47;100366.23;96918;1413;62170;-82
2021/12/19 14:09:51;;;;;;;;;;;;;;;20.95;33.50;100349.33;97103;1415;71741;-81
2021/12/19 14:12:54;;;;;;;;;;;;;;;20.96;33.51;100343.74;97176;1408;75456;-82
2021/12/19 14:16:42;;;;;;;;;;;;;;;;;;;;;
2021/12/19 14:19:31;;;;;;;;;;;;;;;20.95;33.55;100340.37;97132;1411;61537;-81
2021/12/19 14:22:35;;;;;;;;;;;;;;;;;;;;;
2021/12/19 14:25:40;;;;;;;;;;;;;;;20.96;33.61;100334.79;98508;1396;75102;-82
2021/12/19 14:28:38;;;;;;;;;;;;;;;20.96;33.57;100331.39;98724;1395;60775;-82
2021/12/19 14:32:29;;;;;;;;;;;;;;;20.95;33.54;100321.96;98750;1392;60596;-82
2021/12/19 14:35:20;;;;;;;;;;;;;;;;;;;;;
2021/12/19 14:38:40;;;;;;;;;;;;;;;20.96;33.58;100310.46;98486;1401;72928;-81
2021/12/19 14:44:53;;;;;;;;;;;;;;;20.97;33.65;100309.83;98215;1402;60740;-81
2021/12/19 14:48:08;;;;;;;;;;;;;;;20.97;33.62;100311.44;98452;1398;71372;-80
2021/12/19 14:51:35;;;;;;;;;;;;;;;20.97;33.61;100311.05;98559;1397;73834;-81
2021/12/19 14:54:47;;;;;;;;;;;;;;;20.97;33.68;100309.44;98686;1391;60525;-81
2021/12/19 14:57:45;;;;;;;;;;;;;;;;;;;;;
2021/12/19 15:01:01;;;;;;;;;;;;;;;20.98;33.60;100314.06;98471;1402;74279;-81
2021/12/19 15:04:05;;;;;;;;;;;;;;;;;;;;;
2021/12/19 15:06:58;;;;;;;;;;;;;;;20.98;33.61;100302.45;98472;1396;60506;-80
2021/12/19 15:10:07;;;;;;;;;;;;;;;20.97;33.67;100304.11;98836;1394;60449;-80
2021/12/19 15:16:33;;;;;;;;;;;;;;;20.96;33.67;100306.34;99059;1390;71845;-80
2021/12/19 15:19:50;;;;;;;;;;;;;;;;;;;;;
2021/12/19 15:23:08;;;;;;;;;;;;;;;;;;;;;
2021/12/19 15:26:15;;;;;;;;;;;;;;;;;;;;;
2021/12/19 15:30:13;;;;;;;;;;;;;;;20.95;33.63;100306.58;99106;1387;75586;-82
2021/12/19 15:33:22;;;;;;;;;;;;;;;;;;;;;
2021/12/19 15:36:12;;;;;;;;;;;;;;;;;;;;;
2021/12/19 15:39:21;;;;;;;;;;;;;;;20.95;33.64;100292.98;99279;1387;72882;-82
2021/12/19 15:42:37;;;;;;;;;;;;;;;;;;;;;
2021/12/19 15:45:31;;;;;;;;;;;;;;;20.94;33.66;100284.48;99230;1390;61176;-82
2021/12/19 15:48:20;;;;;;;;;;;;;;;20.94;33.71;100279.80;99165;1390;60743;-80
2021/12/19 15:51:28;;;;;;;;;;;;;;;20.95;33.68;100279.06;98945;1380;73062;-81
2021/12/19 15:54:31;;;;;;;;;;;;;;;;;;;;;
2021/12/19 15:57:29;;;;;;;;;;;;;;;;;;;;;
2021/12/19 16:00:31;;;;;;;;;;;;;;;;;;;;;
2021/12/19 16:03:40;;;;;;;;;;;;;;;20.95;33.59;100273.53;100523;1371;72266;-81
2021/12/19 16:06:29;;;;;;;;;;;;;;;;;;;;;
2021/12/19 16:09:30;;;;;;;;;;;;;;;20.94;33.61;100277.13;99923;1379;60489;-81
2021/12/19 16:12:45;;;;;;;;;;;;;;;;;;;;;
2021/12/19 16:15:48;;;;;;;;;;;;;;;;;;;;;
2021/12/19 16:19:19;;;;;;;;;;;;;;;20.94;33.70;100262.12;99766;1378;75134;-81
2021/12/19 16:22:07;;;;;;;;;;;;;;;;;;;;;
2021/12/19 16:25:30;;;;;;;;;;;;;;;20.94;33.71;100256.75;100023;1376;62082;-81
2021/12/19 16:28:20;;;;;;;;;;;;;;;20.95;33.68;100263.15;99804;1374;72735;-78
2021/12/19 16:31:09;;;;;;;;;;;;;;;20.95;33.72;100264.04;100206;1369;74853;-80
2021/12/19 16:34:15;;;;;;;;;;;;;;;20.95;33.74;100265.80;100103;1373;61742;-81
2021/12/19 16:37:42;;;;;;;;;;;;;;;20.95;33.72;100260.44;99326;1381;60449;-81
2021/12/19 16:41:12;;;;;;;;;;;;;;;20.95;33.72;100255.41;98950;1393;74234;-81
2021/12/19 16:43:56;;;;;;;;;;;;;;;;;;;;;
2021/12/19 16:47:10;;;;;;;;;;;;;;;20.95;33.74;100252.02;98313;1395;60602;-81
2021/12/19 16:50:18;;;;;;;;;;;;;;;20.95;33.83;100251.15;98412;1394;61748;-81
2021/12/19 16:53:04;;;;;;;;;;;;;;;20.95;33.77;100249.55;98033;1404;73044;-81
2021/12/19 16:56:31;;;;;;;;;;;;;;;;;;;;;
2021/12/19 16:59:30;;;;;;;;;;;;;;;20.94;33.79;100248.51;97559;1408;60627;-81
2021/12/19 17:02:50;;;;;;;;;;;;;;;20.95;33.79;100246.34;97139;1411;59749;-81
2021/12/19 17:06:10;;;;;;;;;;;;;;;20.94;33.81;100244.40;97274;1412;72985;-81
2021/12/19 17:08:52;;;;;;;;;;;;;;;20.94;33.69;100245.13;97411;1405;74039;-81
2021/12/19 17:11:39;;;;;;;;;;;;;;;;;;;;;
2021/12/19 17:14:35;;;;;;;;;;;;;;;20.94;33.70;100239.22;97887;1401;60502;-81
2021/12/19 17:17:36;;;;;;;;;;;;;;;20.95;33.82;100240.77;98449;1396;71666;-80
2021/12/19 17:20:42;;;;;;;;;;;;;;;20.95;33.83;100238.09;98748;1391;73984;-81
2021/12/19 17:23:48;;;;;;;;;;;;;;;20.95;33.73;100234.50;95291;1384;5490101;-81
2021/12/19 17:33:30;;;;;;;;;;;;;;;20.96;33.81;100224.45;98486;1393;74158;-81
2021/12/19 17:36:45;;;;;;;;;;;;;;;;;;;;;
2021/12/19 17:39:32;;;;;;;;;;;;;;;20.96;33.86;100218.89;98917;1387;60657;-81
2021/12/19 17:42:47;;;;;;;;;;;;;;;20.96;33.86;100228.00;99364;1383;71675;-80
2021/12/19 17:49:14;;;;;;;;;;;;;;;;;;;;;
2021/12/19 17:52:31;;;;;;;;;;;;;;;;;;;;;
2021/12/19 17:55:28;;;;;;;;;;;;;;;20.95;33.80;100207.68;98227;1402;71686;-81
2021/12/19 17:58:14;;;;;;;;;;;;;;;20.95;33.95;100202.63;97580;1410;75025;-80
2021/12/19 18:01:28;;;;;;;;;;;;;;;20.96;33.87;100195.29;97284;1411;61278;-81
2021/12/19 18:04:41;;;;;;;;;;;;;;;;;;;;;
2021/12/19 18:07:30;;;;;;;;;;;;;;;20.95;33.89;100182.98;97090;1413;72665;-81
2021/12/19 18:10:56;;;;;;;;;;;;;;;20.95;33.76;100180.85;97289;1404;75237;-81
2021/12/19 18:13:44;;;;;;;;;;;;;;;20.96;33.95;100179.20;97796;1404;60623;-81
2021/12/19 18:17:00;;;;;;;;;;;;;;;20.95;33.86;100173.29;97629;1405;61449;-82
2021/12/19 18:20:06;;;;;;;;;;;;;;;20.96;33.86;100167.20;97418;1405;71754;-82
2021/12/19 18:23:01;;;;;;;;;;;;;;;;;;;;;
2021/12/19 18:26:09;;;;;;;;;;;;;;;20.96;33.86;100160.38;97102;1411;61540;-82
2021/12/19 18:38:48;;;;;;;;;;;;;;;;;;;;;
2021/12/19 18:45:29;;;;;;;;;;;;;;;20.95;33.86;100129.82;97902;1405;70537;-81
2021/12/19 18:52:46;;;;;;;;;;;;;;;20.95;33.83;100120.89;97725;1408;60651;-81
2021/12/19 18:55:44;;;;;;;;;;;;;;;;;;;;;
2021/12/19 18:59:16;;;;;;;;;;;;;;;20.96;33.86;100114.79;98544;1400;72643;-82
2021/12/19 19:01:58;;;;;;;;;;;;;;;;;;;;;
2021/12/19 19:05:19;;;;;;;;;;;;;;;;;;;;;
2021/12/19 19:08:16;;;;;;;;;;;;;;;20.96;33.87;100127.64;98587;1394;60716;-81
2021/12/19 19:11:40;;;;;;;;;;;;;;;20.96;33.83;100134.96;98625;1399;73404;-81
2021/12/19 19:14:49;;;;;;;;;;;;;;;20.96;33.89;100136.23;98510;1396;74146;-81
2021/12/19 19:17:43;;;;;;;;;;;;;;;20.96;33.83;100140.31;98841;1393;60748;-81
2021/12/19 19:20:34;;;;;;;;;;;;;;;20.96;33.91;100143.20;98786;1396;60414;-81
2021/12/19 19:23:46;;;;;;;;;;;;;;;20.96;33.86;100150.19;99129;1387;71591;-82
2021/12/19 19:27:37;;;;;;;;;;;;;;;20.96;33.89;100152.46;99158;1386;75524;-82
2021/12/19 19:30:31;;;;;;;;;;;;;;;;;;;;;
2021/12/19 19:33:46;;;;;;;;;;;;;;;20.96;33.85;100147.33;99141;1384;61989;-81
2021/12/19 19:37:33;;;;;;;;;;;;;;;20.96;33.87;100150.01;99102;1383;73417;-80
2021/12/19 19:50:18;;;;;;;;;;;;;;;20.97;33.82;100121.69;99279;1384;71689;-80
2021/12/19 19:53:11;;;;;;;;;;;;;;;20.96;33.87;100114.90;99698;1377;74672;-80
2021/12/19 19:56:26;;;;;;;;;;;;;;;;;;;;;
2021/12/19 20:02:49;;;;;;;;;;;;;;;;;;;;;
2021/12/19 20:06:38;;;;;;;;;;;;;;;20.96;33.90;100119.42;98992;1386;72893;-80
2021/12/19 20:09:28;;;;;;;;;;;;;;;;;;;;;
2021/12/19 20:12:24;;;;;;;;;;;;;;;20.96;33.88;100124.73;99262;1380;60515;-82
2021/12/19 20:15:14;;;;;;;;;;;;;;;20.97;33.81;100125.45;100176;1375;74527;-81
2021/12/19 20:18:34;;;;;;;;;;;;;;;;;;;;;
2021/12/19 20:21:56;;;;;;;;;;;;;;;20.96;33.70;100119.94;100272;1368;60744;-81
2021/12/19 20:24:41;;;;;;;;;;;;;;;20.96;33.86;100116.57;100230;1372;62456;-81
2021/12/19 20:27:55;;;;;;;;;;;;;;;;;;;;;
2021/12/19 20:31:20;;;;;;;;;;;;;;;;;;;;;
2021/12/19 20:34:26;;;;;;;;;;;;;;;20.97;33.84;100101.48;99772;1380;61109;-81
2021/12/19 20:40:38;;;;;;;;;;;;;;;;;;;;;
2021/12/19 20:43:55;;;;;;;;;;;;;;;;;;;;;
2021/12/19 20:47:32;;;;;;;;;;;;;;;;;;;;;
2021/12/19 20:50:19;;;;;;;;;;;;;;;20.96;33.88;100093.10;100018;1381;61448;-82
2021/12/19 20:53:35;;;;;;;;;;;;;;;;;;;;;
2021/12/19 20:57:04;;;;;;;;;;;;;;;20.96;33.90;100078.21;99271;1387;74558;-81
2021/12/19 21:00:20;;;;;;;;;;;;;;;20.97;33.87;100074.64;99022;1386;60441;-82
2021/12/19 21:03:30;;;;;;;;;;;;;;;20.96;33.86;100071.61;98864;1389;60629;-82
2021/12/19 21:06:06;;;;;;;;;;;;;;;20.96;33.90;100077.34;98894;1387;72878;-81
2021/12/19 21:09:18;;;;;;;;;;;;;;;20.97;33.83;100080.73;98822;1395;77467;-80
2021/12/19 21:12:59;;;;;;;;;;;;;;;20.97;33.82;100082.52;98945;1393;60495;-80
2021/12/19 21:22:55;;;;;;;;;;;;;;;20.97;33.89;100088.21;98875;1393;74259;-81
2021/12/19 21:25:50;;;;;;;;;;;;;;;20.96;33.89;100089.11;99307;1387;60421;-82
2021/12/19 21:28:47;;;;;;;;;;;;;;;;;;;;;
2021/12/19 21:31:34;;;;;;;;;;;;;;;20.97;33.85;100075.14;99602;1381;72996;-81
2021/12/19 21:35:06;;;;;;;;;;;;;;;20.96;33.86;100078.80;100066;1372;73394;-82
2021/12/19 21:38:52;;;;;;;;;;;;;;;20.96;33.80;100076.09;100204;1376;60456;-82
2021/12/19 21:41:34;;;;;;;;;;;;;;;20.97;33.83;100072.13;99789;1379;60722;-81
2021/12/19 21:44:23;;;;;;;;;;;;;;;20.96;33.85;100066.23;99580;1378;73850;-80
2021/12/19 21:47:39;;;;;;;;;;;;;;;20.96;33.83;100059.27;99888;1379;72992;-81
2021/12/19 21:50:29;;;;;;;;;;;;;;;20.96;33.83;100047.48;100366;1372;60557;-82
2021/12/19 21:53:45;;;;;;;;;;;;;;;;;;;;;
2021/12/19 21:57:27;;;;;;;;;;;;;;;20.96;33.77;100046.95;100236;1372;72816;-81
2021/12/19 22:00:07;;;;;;;;;;;;;;;20.97;33.77;100044.05;100190;1372;75260;-82
2021/12/19 22:06:27;;;;;;;;;;;;;;;20.97;33.82;100028.85;99801;1378;60278;-82
2021/12/19 22:09:27;;;;;;;;;;;;;;;;;;;;;
2021/12/19 22:16:08;;;;;;;;;;;;;;;;;;;;;
2021/12/19 22:18:51;;;;;;;;;;;;;;;20.96;33.80;100018.34;99475;1384;61503;-81
2021/12/19 22:22:18;;;;;;;;;;;;;;;20.96;33.76;100005.44;99951;1379;71469;-82
2021/12/19 22:25:34;;;;;;;;;;;;;;;;;;;;;
2021/12/19 22:28:28;;;;;;;;;;;;;;;20.97;33.84;99998.04;100193;1378;60638;-81
2021/12/19 22:31:55;;;;;;;;;;;;;;;;;;;;;
2021/12/19 22:35:10;;;;;;;;;;;;;;;20.97;33.86;99992.87;100274;1368;71683;-81
2021/12/19 22:37:58;;;;;;;;;;;;;;;20.97;33.75;99990.53;99888;1378;73927;-81
2021/12/19 22:40:51;;;;;;;;;;;;;;;20.97;33.80;99992.29;100445;1365;61445;-81
2021/12/19 22:47:29;;;;;;;;;;;;;;;20.97;33.79;100001.46;100221;1377;71729;-82
2021/12/19 22:50:47;;;;;;;;;;;;;;;20.97;33.78;100000.52;100198;1372;73966;-81
2021/12/19 22:53:54;;;;;;;;;;;;;;;;;;;;;
2021/12/19 22:56:50;;;;;;;;;;;;;;;20.97;33.75;99975.48;99308;1381;60619;-82
2021/12/19 23:02:56;;;;;;;;;;;;;;;;;;;;;
2021/12/19 23:09:01;;;;;;;;;;;;;;;20.97;33.82;99950.64;99273;1388;60423;-81
2021/12/19 23:12:19;;;;;;;;;;;;;;;;;;;;;
2021/12/19 23:15:48;;;;;;;;;;;;;;;20.98;33.78;99949.88;99136;1390;72690;-81
2021/12/19 23:19:11;;;;;;;;;;;;;;;20.97;33.75;99947.20;99261;1387;61608;-81
2021/12/19 23:22:01;;;;;;;;;;;;;;;20.98;33.76;99948.05;99285;1387;60701;-82
2021/12/19 23:31:30;;;;;;;;;;;;;;;;;;;;;
2021/12/19 23:34:49;;;;;;;;;;;;;;;;;;;;;
2021/12/19 23:37:55;;;;;;;;;;;;;;;20.98;33.76;99946.62;99270;1384;74286;-81
2021/12/19 23:47:41;;;;;;;;;;;;;;;20.99;33.75;99950.86;98805;1395;60506;-82
2021/12/19 23:50:33;;;;;;;;;;;;;;;20.99;33.72;99952.64;98741;1390;71454;-82